createdAt,value
2023-04-26T00:02:08.501Z,7.53
2023-04-26T00:04:40.683Z,7.45
2023-04-26T00:07:13.921Z,7.34
2023-04-26T00:09:46.070Z,7.32
2023-04-26T00:12:18.120Z,7.21
2023-04-26T00:14:50.272Z,7.16
2023-04-26T00:17:22.348Z,7.11
2023-04-26T00:19:54.433Z,7.05
2023-04-26T00:22:26.696Z,7.02
2023-04-26T00:24:59.116Z,7.02
2023-04-26T00:27:31.899Z,6.99
2023-04-26T00:30:03.957Z,6.91
2023-04-26T00:32:36.399Z,6.83
2023-04-26T00:35:11.981Z,6.85
2023-04-26T00:37:43.996Z,6.85
2023-04-26T00:40:17.080Z,6.76
2023-04-26T00:42:49.930Z,6.71
2023-04-26T00:45:22.213Z,6.69
2023-04-26T00:47:54.545Z,6.69
2023-04-26T00:50:27.316Z,6.68
2023-04-26T00:53:00.262Z,6.74
2023-04-26T00:55:34.613Z,6.71
2023-04-26T00:58:06.762Z,6.61
2023-04-26T01:00:38.831Z,6.59
2023-04-26T01:03:11.334Z,6.52
2023-04-26T01:05:44.596Z,6.49
2023-04-26T01:08:20.826Z,6.55
2023-04-26T01:10:53.290Z,6.48
2023-04-26T01:13:26.262Z,6.50
2023-04-26T01:16:01.918Z,6.40
2023-04-26T01:18:34.681Z,6.40
2023-04-26T01:21:06.988Z,6.37
2023-04-26T01:23:39.043Z,6.41
2023-04-26T01:26:11.671Z,6.40
2023-04-26T01:28:43.657Z,6.26
2023-04-26T01:31:16.093Z,6.27
2023-04-26T01:33:48.312Z,6.37
2023-04-26T01:36:20.536Z,6.31
2023-04-26T01:38:53.706Z,6.20
2023-04-26T01:41:27.166Z,6.09
2023-04-26T01:43:59.566Z,6.08
2023-04-26T01:46:32.658Z,6.00
2023-04-26T01:49:04.872Z,6.08
2023-04-26T01:51:37.078Z,5.99
2023-04-26T01:54:11.636Z,5.99
2023-04-26T01:56:43.728Z,5.99
2023-04-26T01:59:15.851Z,5.92
2023-04-26T02:01:48.027Z,5.90
2023-04-26T02:04:20.242Z,5.93
2023-04-26T02:06:52.344Z,5.91
2023-04-26T02:09:24.358Z,5.87
2023-04-26T02:12:00.186Z,5.85
2023-04-26T02:14:33.407Z,5.92
2023-04-26T02:17:06.739Z,5.80
2023-04-26T02:19:40.153Z,5.75
2023-04-26T02:22:13.318Z,5.75
2023-04-26T02:24:47.279Z,5.58
2023-04-26T02:27:19.479Z,5.63
2023-04-26T02:29:51.605Z,5.52
2023-04-26T02:32:23.803Z,5.56
2023-04-26T02:34:56.061Z,5.64
2023-04-26T02:37:28.471Z,5.58
2023-04-26T02:40:00.494Z,5.56
2023-04-26T02:42:32.709Z,5.58
2023-04-26T02:45:05.369Z,5.52
2023-04-26T02:47:38.774Z,5.49
2023-04-26T02:50:12.386Z,5.45
2023-04-26T02:52:44.688Z,5.44
2023-04-26T02:55:17.390Z,5.37
2023-04-26T02:57:49.252Z,5.41
2023-04-26T03:00:22.146Z,5.35
2023-04-26T03:02:54.601Z,5.28
2023-04-26T03:05:27.094Z,5.27
2023-04-26T03:07:59.195Z,5.23
2023-04-26T03:10:31.300Z,5.18
2023-04-26T03:13:04.545Z,5.24
2023-04-26T03:15:36.827Z,5.23
2023-04-26T03:18:08.803Z,5.11
2023-04-26T03:20:41.049Z,5.04
2023-04-26T03:23:12.987Z,5.03
2023-04-26T03:25:45.541Z,5.04
2023-04-26T03:28:16.996Z,5.04
2023-04-26T03:30:49.989Z,5.02
2023-04-26T03:33:22.526Z,5.08
2023-04-26T03:35:54.648Z,5.01
2023-04-26T03:38:26.640Z,5.02
2023-04-26T03:40:58.857Z,5.03
2023-04-26T03:43:31.190Z,4.96
2023-04-26T03:46:07.122Z,4.87
2023-04-26T03:48:39.976Z,4.76
2023-04-26T03:51:10.697Z,4.78
2023-04-26T03:53:43.645Z,4.77
2023-04-26T03:56:16.119Z,4.81
2023-04-26T03:58:49.295Z,4.93
2023-04-26T04:01:21.865Z,4.91
2023-04-26T04:03:55.750Z,4.90
2023-04-26T04:06:28.099Z,4.85
2023-04-26T04:09:00.420Z,4.82
2023-04-26T04:11:33.103Z,4.80
2023-04-26T04:14:07.456Z,4.84
2023-04-26T04:16:39.767Z,4.86
2023-04-26T04:19:13.286Z,4.94
2023-04-26T04:21:45.731Z,4.89
2023-04-26T04:24:17.920Z,4.86
2023-04-26T04:26:51.465Z,4.81
2023-04-26T04:29:23.976Z,4.77
2023-04-26T04:31:56.775Z,4.72
2023-04-26T04:34:29.216Z,4.62
2023-04-26T04:37:00.590Z,4.66
2023-04-26T04:39:32.815Z,4.75
2023-04-26T04:42:05.371Z,4.76
2023-04-26T04:44:38.124Z,4.78
2023-04-26T04:47:10.352Z,4.74
2023-04-26T04:49:43.448Z,4.76
2023-04-26T04:52:17.565Z,4.77
2023-04-26T04:54:51.512Z,4.73
2023-04-26T04:57:24.720Z,4.90
2023-04-26T04:59:58.391Z,4.88
2023-04-26T05:02:31.959Z,4.84
2023-04-26T05:05:06.781Z,4.95
2023-04-26T05:07:40.329Z,4.83
2023-04-26T05:10:17.816Z,4.84
2023-04-26T05:12:50.546Z,4.95
2023-04-26T05:15:23.570Z,4.98
2023-04-26T05:17:56.865Z,5.08
2023-04-26T05:20:31.752Z,5.10
2023-04-26T05:23:11.140Z,5.00
2023-04-26T05:25:44.482Z,4.93
2023-04-26T05:28:37.398Z,5.11
2023-04-26T05:31:26.213Z,5.12
2023-04-26T05:34:09.340Z,5.19
2023-04-26T05:36:43.916Z,5.20
2023-04-26T05:39:16.532Z,5.19
2023-04-26T05:41:51.284Z,5.30
2023-04-26T05:44:25.061Z,5.39
2023-04-26T05:47:00.630Z,5.41
2023-04-26T05:49:36.646Z,5.48
2023-04-26T05:52:11.272Z,5.50
2023-04-26T05:54:45.801Z,5.54
2023-04-26T05:57:22.056Z,5.63
2023-04-26T05:59:56.481Z,5.74
2023-04-26T06:02:32.293Z,5.74
2023-04-26T06:05:16.248Z,5.78
2023-04-26T06:07:48.961Z,5.86
2023-04-26T06:10:24.876Z,5.84
2023-04-26T06:12:57.631Z,5.76
2023-04-26T06:15:32.068Z,5.74
2023-04-26T06:18:08.852Z,5.79
2023-04-26T06:20:43.035Z,5.80
2023-04-26T06:23:21.017Z,5.98
2023-04-26T06:25:54.525Z,5.99
2023-04-26T06:28:29.867Z,5.99
2023-04-26T06:31:04.074Z,6.04
2023-04-26T06:33:37.335Z,6.15
2023-04-26T06:36:16.976Z,6.27
2023-04-26T06:38:54.286Z,6.28
2023-04-26T06:41:28.258Z,6.29
2023-04-26T06:44:01.466Z,6.35
2023-04-26T06:46:38.803Z,6.46
2023-04-26T06:49:14.816Z,6.50
2023-04-26T06:51:47.749Z,6.53
2023-04-26T06:54:22.293Z,6.53
2023-04-26T06:56:55.494Z,6.55
2023-04-26T06:59:30.062Z,6.60
2023-04-26T07:02:04.784Z,6.59
2023-04-26T07:04:38.111Z,6.60
2023-04-26T07:07:13.207Z,6.64
2023-04-26T07:09:46.877Z,6.69
2023-04-26T07:12:20.253Z,6.79
2023-04-26T07:14:53.008Z,6.82
2023-04-26T07:17:29.241Z,6.88
2023-04-26T07:20:01.923Z,6.89
2023-04-26T07:22:34.356Z,6.92
2023-04-26T07:25:09.572Z,6.93
2023-04-26T07:27:42.292Z,6.97
2023-04-26T07:30:26.321Z,6.99
2023-04-26T07:33:07.049Z,7.00
2023-04-26T07:35:40.655Z,7.10
2023-04-26T07:38:20.842Z,7.17
2023-04-26T07:40:54.170Z,7.22
2023-04-26T07:43:30.585Z,7.20
2023-04-26T07:46:07.401Z,7.24
2023-04-26T07:48:43.993Z,7.39
2023-04-26T07:51:17.107Z,7.43
2023-04-26T07:53:51.519Z,7.52
2023-04-26T07:56:26.719Z,7.52
2023-04-26T07:59:02.342Z,7.42
2023-04-26T08:01:36.237Z,7.40
2023-04-26T08:04:09.689Z,7.39
2023-04-26T08:06:45.292Z,7.44
2023-04-26T08:09:20.064Z,7.57
2023-04-26T08:11:52.741Z,7.79
2023-04-26T08:14:24.585Z,7.90
2023-04-26T08:16:58.345Z,7.90
2023-04-26T08:19:33.941Z,7.99
2023-04-26T08:22:10.251Z,7.96
2023-04-26T08:24:43.682Z,7.92
2023-04-26T08:27:16.487Z,7.88
2023-04-26T08:29:50.164Z,7.81
2023-04-26T08:32:23.326Z,7.92
2023-04-26T08:34:57.604Z,7.97
2023-04-26T08:37:31.882Z,8.01
2023-04-26T08:40:09.925Z,8.02
2023-04-26T08:42:46.721Z,7.96
2023-04-26T08:45:19.457Z,8.02
2023-04-26T08:47:55.204Z,8.04
2023-04-26T08:50:31.394Z,8.31
2023-04-26T08:53:04.397Z,8.48
2023-04-26T08:55:41.236Z,8.67
2023-04-26T08:58:16.299Z,8.69
2023-04-26T09:00:54.024Z,8.60
2023-04-26T09:03:28.328Z,8.53
2023-04-26T09:06:07.090Z,8.34
2023-04-26T09:08:45.191Z,8.37
2023-04-26T09:11:18.259Z,8.47
2023-04-26T09:13:52.783Z,8.55
2023-04-26T09:16:41.175Z,8.42
2023-04-26T09:19:15.744Z,8.42
2023-04-26T09:21:50.859Z,8.49
2023-04-26T09:24:26.698Z,8.59
2023-04-26T09:27:06.629Z,8.56
2023-04-26T09:29:43.648Z,8.56
2023-04-26T09:32:15.707Z,8.64
2023-04-26T09:34:53.754Z,8.87
2023-04-26T09:37:31.234Z,8.77
2023-04-26T09:40:11.937Z,8.70
2023-04-26T09:42:44.680Z,8.72
2023-04-26T09:45:17.936Z,8.74
2023-04-26T09:47:51.775Z,8.83
2023-04-26T09:50:35.445Z,8.98
2023-04-26T09:53:08.854Z,9.21
2023-04-26T09:55:41.314Z,9.24
2023-04-26T09:58:14.083Z,9.12
2023-04-26T10:00:45.679Z,9.03
2023-04-26T10:03:22.143Z,8.98
2023-04-26T10:05:59.839Z,8.92
2023-04-26T10:08:32.797Z,8.88
2023-04-26T10:11:07.545Z,8.87
2023-04-26T10:13:43.160Z,8.95
2023-04-26T10:16:15.456Z,8.72
2023-04-26T10:18:49.377Z,8.50
2023-04-26T10:21:28.937Z,8.28
2023-04-26T10:24:03.025Z,8.23
2023-04-26T10:26:56.962Z,8.32
2023-04-26T10:30:13.991Z,8.33
2023-04-26T10:33:17.870Z,8.60
2023-04-26T10:36:13.913Z,8.62
2023-04-26T10:39:22.201Z,8.71
2023-04-26T10:42:19.008Z,8.85
2023-04-26T10:44:53.312Z,8.99
2023-04-26T10:47:34.029Z,9.25
2023-04-26T10:50:12.167Z,9.51
2023-04-26T10:53:10.806Z,9.70
2023-04-26T10:55:47.742Z,10.01
2023-04-26T10:58:31.932Z,10.26
2023-04-26T11:01:18.123Z,10.02
2023-04-26T11:06:58.042Z,9.85
2023-04-26T11:09:42.453Z,9.76
2023-04-26T11:12:18.005Z,9.70
2023-04-26T11:14:50.669Z,9.61
2023-04-26T11:17:27.043Z,9.80
2023-04-26T11:20:07.514Z,9.89
2023-04-26T11:22:44.884Z,9.94
2023-04-26T11:25:17.541Z,9.86
2023-04-26T11:27:50.939Z,9.76
2023-04-26T11:30:25.153Z,9.78
2023-04-26T11:32:58.771Z,9.89
2023-04-26T11:35:34.507Z,10.01
2023-04-26T11:38:09.114Z,10.05
2023-04-26T11:40:44.009Z,10.12
2023-04-26T11:43:17.084Z,10.22
2023-04-26T11:45:49.960Z,10.30
2023-04-26T11:48:22.771Z,10.36
2023-04-26T11:50:54.845Z,10.39
2023-04-26T11:53:40.775Z,10.48
2023-04-26T11:56:23.204Z,11.00
2023-04-26T11:58:58.433Z,11.15
2023-04-26T12:01:36.887Z,11.35
2023-04-26T12:04:13.290Z,11.70
2023-04-26T12:06:49.740Z,11.39
2023-04-26T12:09:27.199Z,11.11
2023-04-26T12:12:02.408Z,11.34
2023-04-26T12:14:36.770Z,11.29
2023-04-26T12:17:11.368Z,11.33
2023-04-26T12:19:44.945Z,11.34
2023-04-26T12:22:23.014Z,11.52
2023-04-26T12:25:08.143Z,11.61
2023-04-26T12:27:41.291Z,11.64
2023-04-26T12:30:15.130Z,11.63
2023-04-26T12:32:48.307Z,11.41
2023-04-26T12:35:27.609Z,11.34
2023-04-26T12:38:02.295Z,11.10
2023-04-26T12:40:35.834Z,11.20
2023-04-26T12:43:12.290Z,11.49
2023-04-26T12:45:44.236Z,11.83
2023-04-26T12:48:16.806Z,12.01
2023-04-26T12:50:51.092Z,12.16
2023-04-26T12:53:23.132Z,12.07
2023-04-26T12:55:55.112Z,11.77
2023-04-26T12:58:28.604Z,11.48
2023-04-26T13:01:00.870Z,11.19
2023-04-26T13:03:33.089Z,11.52
2023-04-26T13:06:05.655Z,11.93
2023-04-26T13:08:37.557Z,12.04
2023-04-26T13:11:09.401Z,11.99
2023-04-26T13:13:45.180Z,11.92
2023-04-26T13:16:18.071Z,11.60
2023-04-26T13:18:49.976Z,11.62
2023-04-26T13:21:22.087Z,11.56
2023-04-26T13:23:53.930Z,11.58
2023-04-26T13:26:27.801Z,11.38
2023-04-26T13:29:00.268Z,11.11
2023-04-26T13:31:32.311Z,11.07
2023-04-26T13:34:07.065Z,10.93
2023-04-26T13:36:38.920Z,10.76
2023-04-26T13:39:10.716Z,10.68
2023-04-26T13:41:42.596Z,10.73
2023-04-26T13:44:15.680Z,10.60
2023-04-26T13:46:47.811Z,10.58
2023-04-26T13:49:22.029Z,10.59
2023-04-26T13:51:54.225Z,10.60
2023-04-26T13:54:27.010Z,10.58
2023-04-26T13:56:59.340Z,10.59
2023-04-26T13:59:31.430Z,10.87
2023-04-26T14:02:03.833Z,11.03
2023-04-26T14:04:36.534Z,10.88
2023-04-26T14:07:07.603Z,10.85
2023-04-26T14:09:39.577Z,10.83
2023-04-26T14:12:11.530Z,10.82
2023-04-26T14:14:43.932Z,10.71
2023-04-26T14:17:15.800Z,10.68
2023-04-26T14:19:47.573Z,10.49
2023-04-26T14:22:19.673Z,10.50
2023-04-26T14:24:51.668Z,10.58
2023-04-26T14:27:23.772Z,10.71
2023-04-26T14:29:55.836Z,10.86
2023-04-26T14:32:27.936Z,11.06
2023-04-26T14:34:59.933Z,11.06
2023-04-26T14:37:31.835Z,11.01
2023-04-26T14:40:04.682Z,11.01
2023-04-26T14:42:37.368Z,11.06
2023-04-26T14:45:11.755Z,11.02
2023-04-26T14:47:43.660Z,11.28
2023-04-26T14:50:15.571Z,11.75
2023-04-26T14:52:47.672Z,12.29
2023-04-26T14:55:22.392Z,12.55
2023-04-26T14:57:54.412Z,12.39
2023-04-26T15:00:26.891Z,12.14
2023-04-26T15:02:59.318Z,12.29
2023-04-26T15:05:31.830Z,12.35
2023-04-26T15:08:04.067Z,12.51
2023-04-26T15:10:36.044Z,12.60
2023-04-26T15:13:08.488Z,12.41
2023-04-26T15:15:39.384Z,11.93
2023-04-26T15:18:11.391Z,11.70
2023-04-26T15:20:43.668Z,11.50
2023-04-26T15:23:15.854Z,11.41
2023-04-26T15:25:48.231Z,11.26
2023-04-26T15:28:20.370Z,11.01
2023-04-26T15:30:52.752Z,10.97
2023-04-26T15:33:24.721Z,11.17
2023-04-26T15:35:56.557Z,11.85
2023-04-26T15:38:28.588Z,12.43
2023-04-26T15:41:00.620Z,12.30
2023-04-26T15:43:33.059Z,11.91
2023-04-26T15:46:05.253Z,11.53
2023-04-26T15:48:37.383Z,11.35
2023-04-26T15:51:09.881Z,11.49
2023-04-26T15:53:44.104Z,11.77
2023-04-26T15:56:19.509Z,11.89
2023-04-26T15:58:51.933Z,11.91
2023-04-26T16:01:24.681Z,11.57
2023-04-26T16:03:55.448Z,11.40
2023-04-26T16:06:28.522Z,11.31
2023-04-26T16:09:02.202Z,11.36
2023-04-26T16:11:34.524Z,11.68
2023-04-26T16:14:06.591Z,11.99
2023-04-26T16:16:40.522Z,12.20
2023-04-26T16:19:14.533Z,12.57
2023-04-26T16:21:47.030Z,12.89
2023-04-26T16:24:20.850Z,13.00
2023-04-26T16:26:53.381Z,13.23
2023-04-26T16:29:25.495Z,13.59
2023-04-26T16:31:57.418Z,13.68
2023-04-26T16:34:29.308Z,13.52
2023-04-26T16:37:01.140Z,13.24
2023-04-26T16:39:33.204Z,12.77
2023-04-26T16:42:05.402Z,12.29
2023-04-26T16:44:37.205Z,11.86
2023-04-26T16:47:09.330Z,11.57
2023-04-26T16:49:41.293Z,11.56
2023-04-26T16:52:13.185Z,11.35
2023-04-26T16:54:45.154Z,11.31
2023-04-26T16:57:17.312Z,11.13
2023-04-26T16:59:49.191Z,10.89
2023-04-26T17:02:21.573Z,10.76
2023-04-26T17:04:54.022Z,10.83
2023-04-26T17:07:25.929Z,10.78
2023-04-26T17:09:57.816Z,10.70
2023-04-26T17:12:29.673Z,10.65
2023-04-26T17:15:04.265Z,10.55
2023-04-26T17:17:36.810Z,10.50
2023-04-26T17:20:13.424Z,10.41
2023-04-26T17:22:45.349Z,10.24
2023-04-26T17:25:17.642Z,10.18
2023-04-26T17:27:49.455Z,10.14
2023-04-26T17:30:22.086Z,10.03
2023-04-26T17:32:52.948Z,9.98
2023-04-26T17:35:25.110Z,9.87
2023-04-26T17:37:56.928Z,9.82
2023-04-26T17:40:28.903Z,9.74
2023-04-26T17:43:00.683Z,9.77
2023-04-26T17:45:32.471Z,9.78
2023-04-26T17:48:04.499Z,9.77
2023-04-26T17:50:38.001Z,9.72
2023-04-26T17:53:10.755Z,9.66
2023-04-26T17:55:42.704Z,9.68
2023-04-26T17:58:15.307Z,9.55
2023-04-26T18:00:47.220Z,9.45
2023-04-26T18:03:20.229Z,9.46
2023-04-26T18:05:52.481Z,9.43
2023-04-26T18:08:24.310Z,9.41
2023-04-26T18:10:56.382Z,9.43
2023-04-26T18:13:28.234Z,9.38
2023-04-26T18:16:00.017Z,9.30
2023-04-26T18:18:31.906Z,9.34
2023-04-26T18:21:03.751Z,9.28
2023-04-26T18:23:36.258Z,9.25
2023-04-26T18:26:08.174Z,9.26
2023-04-26T18:28:40.063Z,9.20
2023-04-26T18:31:11.868Z,9.19
2023-04-26T18:33:43.811Z,9.16
2023-04-26T18:36:16.349Z,9.15
2023-04-26T18:38:48.410Z,9.10
2023-04-26T18:41:20.168Z,9.09
2023-04-26T18:43:53.592Z,8.98
2023-04-26T18:46:25.460Z,8.95
2023-04-26T18:48:57.684Z,8.92
2023-04-26T18:51:29.655Z,8.88
2023-04-26T18:54:02.393Z,8.86
2023-04-26T18:56:32.697Z,8.81
2023-04-26T18:59:04.520Z,8.79
2023-04-26T19:01:36.468Z,8.72
2023-04-26T19:04:09.226Z,8.66
2023-04-26T19:06:42.474Z,8.58
2023-04-26T19:09:15.208Z,8.59
2023-04-26T19:11:46.300Z,8.60
2023-04-26T19:14:18.411Z,8.55
2023-04-26T19:16:50.881Z,8.51
2023-04-26T19:19:22.869Z,8.41
2023-04-26T19:21:54.725Z,8.34
2023-04-26T19:24:26.762Z,8.28
2023-04-26T19:26:58.738Z,8.33
2023-04-26T19:29:30.599Z,8.29
2023-04-26T19:32:04.740Z,8.21
2023-04-26T19:34:38.730Z,8.18
2023-04-26T19:37:11.363Z,8.21
2023-04-26T19:39:43.670Z,8.16
2023-04-26T19:42:15.435Z,8.18
2023-04-26T19:44:47.209Z,8.22
2023-04-26T19:47:19.034Z,8.26
2023-04-26T19:49:53.080Z,8.28
2023-04-26T19:52:25.042Z,8.16
2023-04-26T19:54:57.394Z,8.10
2023-04-26T19:57:29.585Z,8.14
2023-04-26T20:00:01.708Z,8.03
2023-04-26T20:02:33.751Z,7.92
2023-04-26T20:05:07.114Z,7.89
2023-04-26T20:07:39.542Z,7.88
2023-04-26T20:10:12.901Z,7.83
2023-04-26T20:12:44.961Z,7.78
2023-04-26T20:15:17.684Z,7.76
2023-04-26T20:17:48.101Z,7.73
2023-04-26T20:20:20.196Z,7.71
2023-04-26T20:22:52.056Z,7.79
2023-04-26T20:25:24.414Z,7.82
2023-04-26T20:27:56.730Z,7.88
2023-04-26T20:30:29.373Z,7.92
2023-04-26T20:33:01.975Z,7.95
2023-04-26T20:35:33.924Z,7.95
2023-04-26T20:38:06.331Z,7.99
2023-04-26T20:40:41.126Z,8.00
2023-04-26T20:43:13.882Z,7.99
2023-04-26T20:45:44.437Z,7.99
2023-04-26T20:48:16.382Z,7.98
2023-04-26T20:50:48.219Z,7.96
2023-04-26T20:53:20.147Z,7.94
2023-04-26T20:55:54.154Z,7.95
2023-04-26T20:58:26.862Z,7.87
2023-04-26T21:00:59.290Z,7.83
2023-04-26T21:03:34.598Z,7.83
2023-04-26T21:06:06.956Z,7.84
2023-04-26T21:08:38.951Z,7.80
2023-04-26T21:11:11.417Z,7.80
2023-04-26T21:13:43.807Z,7.78
2023-04-26T21:16:16.467Z,7.79
2023-04-26T21:18:49.041Z,7.77
2023-04-26T21:21:21.597Z,7.73
2023-04-26T21:23:54.200Z,7.70
2023-04-26T21:26:26.387Z,7.66
2023-04-26T21:28:58.568Z,7.62
2023-04-26T21:31:30.989Z,7.59
2023-04-26T21:34:03.283Z,7.59
2023-04-26T21:36:36.149Z,7.57
2023-04-26T21:39:09.317Z,7.55
2023-04-26T21:41:42.006Z,7.53
2023-04-26T21:44:14.510Z,7.52
2023-04-26T21:46:46.716Z,7.44
2023-04-26T21:49:19.689Z,7.39
2023-04-26T21:51:51.878Z,7.26
2023-04-26T21:54:24.125Z,7.23
2023-04-26T21:56:56.342Z,7.25
2023-04-26T21:59:28.942Z,7.14
2023-04-26T22:02:01.317Z,7.17
2023-04-26T22:04:34.797Z,7.19
2023-04-26T22:07:07.535Z,7.19
2023-04-26T22:09:38.300Z,7.19
2023-04-26T22:12:12.523Z,7.11
2023-04-26T22:14:44.789Z,7.12
2023-04-26T22:17:15.948Z,7.02
2023-04-26T22:19:48.573Z,7.03
2023-04-26T22:22:20.891Z,7.05
2023-04-26T22:24:53.216Z,7.02
2023-04-26T22:27:25.882Z,6.97
2023-04-26T22:29:58.886Z,6.89
2023-04-26T22:32:33.008Z,6.64
2023-04-26T22:35:05.618Z,6.63
2023-04-26T22:37:38.097Z,6.62
2023-04-26T22:40:12.831Z,6.52
2023-04-26T22:42:45.641Z,6.43
2023-04-26T22:45:16.448Z,6.38
2023-04-26T22:47:48.516Z,6.38
2023-04-26T22:50:20.935Z,6.42
2023-04-26T22:52:52.813Z,6.27
2023-04-26T22:55:24.976Z,6.25
2023-04-26T22:57:56.844Z,6.18
2023-04-26T23:00:28.671Z,6.22
2023-04-26T23:03:00.633Z,6.13
2023-04-26T23:05:32.576Z,6.16
2023-04-26T23:08:04.334Z,6.22
2023-04-26T23:10:36.203Z,6.23
2023-04-26T23:13:08.074Z,6.19
2023-04-26T23:15:40.052Z,6.22
2023-04-26T23:18:11.797Z,6.24
2023-04-26T23:20:43.718Z,6.18
2023-04-26T23:23:16.014Z,6.16
2023-04-26T23:25:47.933Z,6.24
2023-04-26T23:28:19.773Z,6.22
2023-04-26T23:30:52.327Z,6.24
2023-04-26T23:33:25.427Z,6.22
2023-04-26T23:35:58.468Z,6.19
2023-04-26T23:38:30.304Z,6.14
2023-04-26T23:41:02.256Z,6.10
2023-04-26T23:43:34.583Z,6.21
2023-04-26T23:46:06.995Z,6.27
2023-04-26T23:48:38.983Z,6.38
2023-04-26T23:51:10.837Z,6.46
2023-04-26T23:53:42.649Z,6.45
2023-04-26T23:56:14.550Z,6.46
2023-04-26T23:58:46.520Z,6.45
